sensor_id;sensor_type;location;lat;lon;timestamp;P1;durP1;ratioP1;P2;durP2;ratioP2
78197;SDS011;67472;51.554;7.812;2024-01-15T00:01:05;52.08;;;26.67;;
78197;SDS011;67472;51.554;7.812;2024-01-15T00:03:53;48.38;;;26.63;;
78197;SDS011;67472;51.554;7.812;2024-01-15T00:06:40;49.50;;;25.88;;
78197;SDS011;67472;51.554;7.812;2024-01-15T00:09:26;50.10;;;25.17;;
78197;SDS011;67472;51.554;7.812;2024-01-15T00:12:14;46.30;;;25.08;;
78197;SDS011;67472;51.554;7.812;2024-01-15T00:15:01;40.67;;;24.20;;
78197;SDS011;67472;51.554;7.812;2024-01-15T00:17:49;46.15;;;25.45;;
78197;SDS011;67472;51.554;7.812;2024-01-15T00:20:37;43.03;;;23.23;;
78197;SDS011;67472;51.554;7.812;2024-01-15T00:23:25;43.13;;;24.25;;
78197;SDS011;67472;51.554;7.812;2024-01-15T00:26:11;46.55;;;24.05;;
78197;SDS011;67472;51.554;7.812;2024-01-15T00:28:59;41.65;;;24.30;;
78197;SDS011;67472;51.554;7.812;2024-01-15T00:31:45;39.70;;;24.02;;
78197;SDS011;67472;51.554;7.812;2024-01-15T00:34:32;42.60;;;24.30;;
78197;SDS011;67472;51.554;7.812;2024-01-15T00:37:21;45.45;;;24.45;;
78197;SDS011;67472;51.554;7.812;2024-01-15T00:40:09;52.45;;;25.52;;
78197;SDS011;67472;51.554;7.812;2024-01-15T00:42:58;42.70;;;24.05;;
78197;SDS011;67472;51.554;7.812;2024-01-15T00:45:44;46.85;;;25.10;;
78197;SDS011;67472;51.554;7.812;2024-01-15T00:48:34;49.28;;;26.13;;
78197;SDS011;67472;51.554;7.812;2024-01-15T00:51:20;49.10;;;26.92;;
78197;SDS011;67472;51.554;7.812;2024-01-15T00:54:09;47.22;;;25.20;;
78197;SDS011;67472;51.554;7.812;2024-01-15T00:56:56;52.00;;;28.45;;
78197;SDS011;67472;51.554;7.812;2024-01-15T00:59:44;53.50;;;27.52;;
78197;SDS011;67472;51.554;7.812;2024-01-15T01:02:33;49.78;;;27.15;;
78197;SDS011;67472;51.554;7.812;2024-01-15T01:05:19;45.17;;;26.00;;
78197;SDS011;67472;51.554;7.812;2024-01-15T01:08:07;49.40;;;26.13;;
78197;SDS011;67472;51.554;7.812;2024-01-15T01:10:59;51.95;;;27.33;;
78197;SDS011;67472;51.554;7.812;2024-01-15T01:13:46;55.55;;;27.17;;
78197;SDS011;67472;51.554;7.812;2024-01-15T01:16:32;50.75;;;27.75;;
78197;SDS011;67472;51.554;7.812;2024-01-15T01:19:23;50.22;;;27.35;;
78197;SDS011;67472;51.554;7.812;2024-01-15T01:22:10;56.60;;;28.15;;
78197;SDS011;67472;51.554;7.812;2024-01-15T01:24:56;52.58;;;27.40;;
78197;SDS011;67472;51.554;7.812;2024-01-15T01:27:44;49.67;;;25.92;;
78197;SDS011;67472;51.554;7.812;2024-01-15T01:30:31;53.72;;;28.45;;
78197;SDS011;67472;51.554;7.812;2024-01-15T01:33:17;47.83;;;26.52;;
78197;SDS011;67472;51.554;7.812;2024-01-15T01:36:06;47.80;;;25.65;;
78197;SDS011;67472;51.554;7.812;2024-01-15T01:38:53;52.15;;;26.48;;
78197;SDS011;67472;51.554;7.812;2024-01-15T01:41:41;47.22;;;24.88;;
78197;SDS011;67472;51.554;7.812;2024-01-15T01:44:30;51.22;;;25.92;;
78197;SDS011;67472;51.554;7.812;2024-01-15T01:47:17;53.42;;;28.73;;
78197;SDS011;67472;51.554;7.812;2024-01-15T01:50:05;55.80;;;26.30;;
78197;SDS011;67472;51.554;7.812;2024-01-15T01:52:53;52.72;;;26.55;;
78197;SDS011;67472;51.554;7.812;2024-01-15T01:55:39;46.03;;;25.13;;
78197;SDS011;67472;51.554;7.812;2024-01-15T01:58:26;52.35;;;24.83;;
78197;SDS011;67472;51.554;7.812;2024-01-15T02:01:16;49.22;;;26.00;;
78197;SDS011;67472;51.554;7.812;2024-01-15T02:04:04;47.28;;;25.25;;
78197;SDS011;67472;51.554;7.812;2024-01-15T02:06:50;46.28;;;24.42;;
78197;SDS011;67472;51.554;7.812;2024-01-15T02:09:37;47.40;;;23.33;;
78197;SDS011;67472;51.554;7.812;2024-01-15T02:12:23;48.13;;;24.30;;
78197;SDS011;67472;51.554;7.812;2024-01-15T02:15:10;42.63;;;22.67;;
78197;SDS011;67472;51.554;7.812;2024-01-15T02:17:58;45.85;;;22.40;;
78197;SDS011;67472;51.554;7.812;2024-01-15T02:20:45;41.67;;;22.80;;
78197;SDS011;67472;51.554;7.812;2024-01-15T02:23:34;42.45;;;22.65;;
78197;SDS011;67472;51.554;7.812;2024-01-15T02:26:20;42.53;;;22.02;;
78197;SDS011;67472;51.554;7.812;2024-01-15T02:29:07;40.15;;;21.33;;
78197;SDS011;67472;51.554;7.812;2024-01-15T02:31:54;43.30;;;21.83;;
78197;SDS011;67472;51.554;7.812;2024-01-15T02:34:40;39.92;;;23.00;;
78197;SDS011;67472;51.554;7.812;2024-01-15T02:37:27;40.42;;;22.60;;
78197;SDS011;67472;51.554;7.812;2024-01-15T02:40:15;37.47;;;21.58;;
78197;SDS011;67472;51.554;7.812;2024-01-15T02:43:02;51.03;;;23.13;;
78197;SDS011;67472;51.554;7.812;2024-01-15T02:45:49;39.42;;;22.98;;
78197;SDS011;67472;51.554;7.812;2024-01-15T02:48:36;37.63;;;22.48;;
78197;SDS011;67472;51.554;7.812;2024-01-15T02:51:23;48.10;;;23.80;;
78197;SDS011;67472;51.554;7.812;2024-01-15T02:54:09;42.45;;;22.67;;
78197;SDS011;67472;51.554;7.812;2024-01-15T02:56:58;38.72;;;22.27;;
78197;SDS011;67472;51.554;7.812;2024-01-15T02:59:44;40.97;;;21.65;;
78197;SDS011;67472;51.554;7.812;2024-01-15T03:02:30;44.58;;;22.20;;
78197;SDS011;67472;51.554;7.812;2024-01-15T03:05:17;38.65;;;22.70;;
78197;SDS011;67472;51.554;7.812;2024-01-15T03:08:04;31.85;;;20.33;;
78197;SDS011;67472;51.554;7.812;2024-01-15T03:10:51;35.40;;;19.60;;
78197;SDS011;67472;51.554;7.812;2024-01-15T03:13:39;35.85;;;19.55;;
78197;SDS011;67472;51.554;7.812;2024-01-15T03:16:25;45.70;;;20.95;;
78197;SDS011;67472;51.554;7.812;2024-01-15T03:19:12;34.08;;;20.67;;
78197;SDS011;67472;51.554;7.812;2024-01-15T03:21:58;37.72;;;19.40;;
78197;SDS011;67472;51.554;7.812;2024-01-15T03:24:45;38.05;;;20.05;;
78197;SDS011;67472;51.554;7.812;2024-01-15T03:27:32;38.75;;;19.92;;
78197;SDS011;67472;51.554;7.812;2024-01-15T03:30:22;41.40;;;20.83;;
78197;SDS011;67472;51.554;7.812;2024-01-15T03:33:08;37.45;;;19.58;;
78197;SDS011;67472;51.554;7.812;2024-01-15T03:35:54;42.30;;;21.05;;
78197;SDS011;67472;51.554;7.812;2024-01-15T03:38:41;36.08;;;19.23;;
78197;SDS011;67472;51.554;7.812;2024-01-15T03:41:27;39.40;;;19.95;;
78197;SDS011;67472;51.554;7.812;2024-01-15T03:44:17;34.35;;;18.63;;
78197;SDS011;67472;51.554;7.812;2024-01-15T03:47:06;42.63;;;19.17;;
78197;SDS011;67472;51.554;7.812;2024-01-15T03:49:52;32.03;;;18.77;;
78197;SDS011;67472;51.554;7.812;2024-01-15T03:52:39;37.00;;;19.17;;
78197;SDS011;67472;51.554;7.812;2024-01-15T03:55:26;32.80;;;18.80;;
78197;SDS011;67472;51.554;7.812;2024-01-15T03:58:12;37.40;;;17.73;;
78197;SDS011;67472;51.554;7.812;2024-01-15T04:01:02;36.83;;;18.73;;
78197;SDS011;67472;51.554;7.812;2024-01-15T04:03:50;37.00;;;19.02;;
78197;SDS011;67472;51.554;7.812;2024-01-15T04:06:36;30.90;;;18.60;;
78197;SDS011;67472;51.554;7.812;2024-01-15T04:09:23;36.83;;;17.15;;
78197;SDS011;67472;51.554;7.812;2024-01-15T04:12:09;32.38;;;18.65;;
78197;SDS011;67472;51.554;7.812;2024-01-15T04:14:58;33.63;;;17.60;;
78197;SDS011;67472;51.554;7.812;2024-01-15T04:17:45;32.90;;;18.33;;
78197;SDS011;67472;51.554;7.812;2024-01-15T04:20:33;34.42;;;16.85;;
78197;SDS011;67472;51.554;7.812;2024-01-15T04:23:19;35.17;;;17.40;;
78197;SDS011;67472;51.554;7.812;2024-01-15T04:26:06;32.83;;;17.98;;
78197;SDS011;67472;51.554;7.812;2024-01-15T04:28:54;34.33;;;17.45;;
78197;SDS011;67472;51.554;7.812;2024-01-15T04:31:43;39.58;;;19.08;;
78197;SDS011;67472;51.554;7.812;2024-01-15T04:34:30;31.63;;;16.92;;
78197;SDS011;67472;51.554;7.812;2024-01-15T04:37:19;32.53;;;18.17;;
78197;SDS011;67472;51.554;7.812;2024-01-15T04:40:09;37.33;;;18.33;;
78197;SDS011;67472;51.554;7.812;2024-01-15T04:42:57;31.17;;;18.02;;
78197;SDS011;67472;51.554;7.812;2024-01-15T04:45:43;27.05;;;17.23;;
78197;SDS011;67472;51.554;7.812;2024-01-15T04:48:30;28.33;;;17.42;;
78197;SDS011;67472;51.554;7.812;2024-01-15T04:51:16;36.40;;;19.63;;
78197;SDS011;67472;51.554;7.812;2024-01-15T04:54:06;36.60;;;19.23;;
78197;SDS011;67472;51.554;7.812;2024-01-15T04:56:52;30.67;;;18.17;;
78197;SDS011;67472;51.554;7.812;2024-01-15T04:59:38;33.50;;;19.15;;
78197;SDS011;67472;51.554;7.812;2024-01-15T05:02:25;29.85;;;17.90;;
78197;SDS011;67472;51.554;7.812;2024-01-15T05:05:12;35.88;;;17.10;;
78197;SDS011;67472;51.554;7.812;2024-01-15T05:07:58;39.90;;;18.25;;
78197;SDS011;67472;51.554;7.812;2024-01-15T05:10:47;32.10;;;17.77;;
78197;SDS011;67472;51.554;7.812;2024-01-15T05:13:33;29.38;;;16.70;;
78197;SDS011;67472;51.554;7.812;2024-01-15T05:16:19;29.20;;;16.52;;
78197;SDS011;67472;51.554;7.812;2024-01-15T05:19:07;26.38;;;15.15;;
78197;SDS011;67472;51.554;7.812;2024-01-15T05:21:53;30.70;;;14.73;;
78197;SDS011;67472;51.554;7.812;2024-01-15T05:24:40;28.45;;;16.40;;
78197;SDS011;67472;51.554;7.812;2024-01-15T05:27:28;21.85;;;13.60;;
78197;SDS011;67472;51.554;7.812;2024-01-15T05:30:14;26.90;;;14.77;;
78197;SDS011;67472;51.554;7.812;2024-01-15T05:33:04;26.95;;;14.82;;
78197;SDS011;67472;51.554;7.812;2024-01-15T05:35:58;24.33;;;15.30;;
78197;SDS011;67472;51.554;7.812;2024-01-15T05:38:46;34.53;;;15.27;;
78197;SDS011;67472;51.554;7.812;2024-01-15T05:41:32;29.88;;;14.10;;
78197;SDS011;67472;51.554;7.812;2024-01-15T05:44:20;30.70;;;14.77;;
78197;SDS011;67472;51.554;7.812;2024-01-15T05:47:07;25.55;;;15.07;;
78197;SDS011;67472;51.554;7.812;2024-01-15T05:49:54;25.55;;;14.48;;
78197;SDS011;67472;51.554;7.812;2024-01-15T05:52:40;30.27;;;15.85;;
78197;SDS011;67472;51.554;7.812;2024-01-15T05:55:27;27.48;;;15.18;;
78197;SDS011;67472;51.554;7.812;2024-01-15T05:58:14;22.58;;;15.18;;
78197;SDS011;67472;51.554;7.812;2024-01-15T06:01:01;27.55;;;15.80;;
78197;SDS011;67472;51.554;7.812;2024-01-15T06:03:48;29.08;;;15.60;;
78197;SDS011;67472;51.554;7.812;2024-01-15T06:06:35;26.48;;;13.98;;
78197;SDS011;67472;51.554;7.812;2024-01-15T06:09:24;25.83;;;14.95;;
78197;SDS011;67472;51.554;7.812;2024-01-15T06:12:11;23.17;;;13.60;;
78197;SDS011;67472;51.554;7.812;2024-01-15T06:15:00;29.63;;;15.00;;
78197;SDS011;67472;51.554;7.812;2024-01-15T06:17:48;22.42;;;14.45;;
78197;SDS011;67472;51.554;7.812;2024-01-15T06:20:35;29.10;;;14.40;;
78197;SDS011;67472;51.554;7.812;2024-01-15T06:23:21;22.25;;;14.52;;
78197;SDS011;67472;51.554;7.812;2024-01-15T06:26:07;24.30;;;14.15;;
78197;SDS011;67472;51.554;7.812;2024-01-15T06:28:56;24.15;;;15.18;;
78197;SDS011;67472;51.554;7.812;2024-01-15T06:31:42;28.52;;;14.38;;
78197;SDS011;67472;51.554;7.812;2024-01-15T06:34:30;28.15;;;14.68;;
78197;SDS011;67472;51.554;7.812;2024-01-15T06:37:17;26.05;;;14.30;;
78197;SDS011;67472;51.554;7.812;2024-01-15T06:40:06;21.45;;;14.40;;
78197;SDS011;67472;51.554;7.812;2024-01-15T06:42:59;23.30;;;15.73;;
78197;SDS011;67472;51.554;7.812;2024-01-15T06:45:45;24.13;;;14.75;;
78197;SDS011;67472;51.554;7.812;2024-01-15T06:48:31;26.23;;;14.60;;
78197;SDS011;67472;51.554;7.812;2024-01-15T06:51:19;27.30;;;14.40;;
78197;SDS011;67472;51.554;7.812;2024-01-15T06:54:08;22.83;;;13.68;;
78197;SDS011;67472;51.554;7.812;2024-01-15T06:56:54;24.27;;;14.23;;
78197;SDS011;67472;51.554;7.812;2024-01-15T06:59:41;23.60;;;13.48;;
78197;SDS011;67472;51.554;7.812;2024-01-15T07:02:27;25.73;;;13.18;;
78197;SDS011;67472;51.554;7.812;2024-01-15T07:05:17;27.55;;;14.45;;
78197;SDS011;67472;51.554;7.812;2024-01-15T07:08:05;20.92;;;13.60;;
78197;SDS011;67472;51.554;7.812;2024-01-15T07:10:52;29.27;;;15.20;;
78197;SDS011;67472;51.554;7.812;2024-01-15T07:13:38;24.92;;;14.73;;
78197;SDS011;67472;51.554;7.812;2024-01-15T07:16:24;24.33;;;14.57;;
78197;SDS011;67472;51.554;7.812;2024-01-15T07:19:11;26.67;;;15.18;;
78197;SDS011;67472;51.554;7.812;2024-01-15T07:21:58;38.13;;;16.75;;
78197;SDS011;67472;51.554;7.812;2024-01-15T07:24:47;29.17;;;14.73;;
78197;SDS011;67472;51.554;7.812;2024-01-15T07:27:34;32.40;;;16.40;;
78197;SDS011;67472;51.554;7.812;2024-01-15T07:30:21;24.20;;;14.48;;
78197;SDS011;67472;51.554;7.812;2024-01-15T07:33:08;24.27;;;14.35;;
78197;SDS011;67472;51.554;7.812;2024-01-15T07:35:55;24.38;;;14.73;;
78197;SDS011;67472;51.554;7.812;2024-01-15T07:38:47;21.67;;;14.35;;
78197;SDS011;67472;51.554;7.812;2024-01-15T07:41:35;29.88;;;15.27;;
78197;SDS011;67472;51.554;7.812;2024-01-15T07:44:25;25.20;;;14.55;;
78197;SDS011;67472;51.554;7.812;2024-01-15T07:47:11;20.92;;;14.50;;
78197;SDS011;67472;51.554;7.812;2024-01-15T07:50:01;30.25;;;15.88;;
78197;SDS011;67472;51.554;7.812;2024-01-15T07:52:48;28.10;;;16.15;;
78197;SDS011;67472;51.554;7.812;2024-01-15T07:55:35;24.23;;;14.98;;
78197;SDS011;67472;51.554;7.812;2024-01-15T07:58:24;27.75;;;16.30;;
78197;SDS011;67472;51.554;7.812;2024-01-15T08:01:11;27.38;;;16.65;;
78197;SDS011;67472;51.554;7.812;2024-01-15T08:03:57;26.08;;;16.92;;
78197;SDS011;67472;51.554;7.812;2024-01-15T08:06:44;24.55;;;17.15;;
78197;SDS011;67472;51.554;7.812;2024-01-15T08:09:31;27.63;;;16.48;;
78197;SDS011;67472;51.554;7.812;2024-01-15T08:12:19;25.08;;;15.70;;
78197;SDS011;67472;51.554;7.812;2024-01-15T08:15:07;23.52;;;15.77;;
78197;SDS011;67472;51.554;7.812;2024-01-15T08:17:54;25.38;;;14.90;;
78197;SDS011;67472;51.554;7.812;2024-01-15T08:20:40;27.77;;;15.25;;
78197;SDS011;67472;51.554;7.812;2024-01-15T08:23:27;31.60;;;15.32;;
78197;SDS011;67472;51.554;7.812;2024-01-15T08:26:15;24.10;;;15.20;;
78197;SDS011;67472;51.554;7.812;2024-01-15T08:29:02;23.73;;;15.00;;
78197;SDS011;67472;51.554;7.812;2024-01-15T08:31:50;24.83;;;15.32;;
78197;SDS011;67472;51.554;7.812;2024-01-15T08:34:37;25.67;;;15.45;;
78197;SDS011;67472;51.554;7.812;2024-01-15T08:37:24;23.15;;;15.18;;
78197;SDS011;67472;51.554;7.812;2024-01-15T08:40:11;24.23;;;14.52;;
78197;SDS011;67472;51.554;7.812;2024-01-15T08:42:59;19.45;;;13.88;;
78197;SDS011;67472;51.554;7.812;2024-01-15T08:45:48;18.20;;;12.95;;
78197;SDS011;67472;51.554;7.812;2024-01-15T08:48:39;20.88;;;13.85;;
78197;SDS011;67472;51.554;7.812;2024-01-15T08:51:26;22.48;;;12.27;;
78197;SDS011;67472;51.554;7.812;2024-01-15T08:54:13;16.00;;;11.77;;
78197;SDS011;67472;51.554;7.812;2024-01-15T08:57:01;19.88;;;12.38;;
78197;SDS011;67472;51.554;7.812;2024-01-15T08:59:49;17.67;;;11.32;;
78197;SDS011;67472;51.554;7.812;2024-01-15T09:02:36;21.65;;;12.57;;
78197;SDS011;67472;51.554;7.812;2024-01-15T09:05:23;17.67;;;12.07;;
78197;SDS011;67472;51.554;7.812;2024-01-15T09:08:10;18.80;;;11.65;;
78197;SDS011;67472;51.554;7.812;2024-01-15T09:10:57;18.73;;;12.55;;
78197;SDS011;67472;51.554;7.812;2024-01-15T09:13:47;19.83;;;12.07;;
78197;SDS011;67472;51.554;7.812;2024-01-15T09:16:34;16.67;;;11.20;;
78197;SDS011;67472;51.554;7.812;2024-01-15T09:19:21;15.75;;;10.40;;
78197;SDS011;67472;51.554;7.812;2024-01-15T09:22:10;15.90;;;10.23;;
78197;SDS011;67472;51.554;7.812;2024-01-15T09:24:57;16.42;;;10.30;;
78197;SDS011;67472;51.554;7.812;2024-01-15T09:27:43;14.48;;;10.25;;
78197;SDS011;67472;51.554;7.812;2024-01-15T09:30:32;15.40;;;9.38;;
78197;SDS011;67472;51.554;7.812;2024-01-15T09:33:18;16.08;;;9.00;;
78197;SDS011;67472;51.554;7.812;2024-01-15T09:36:05;13.75;;;9.73;;
78197;SDS011;67472;51.554;7.812;2024-01-15T09:38:53;15.55;;;10.27;;
78197;SDS011;67472;51.554;7.812;2024-01-15T09:41:39;16.08;;;11.32;;
78197;SDS011;67472;51.554;7.812;2024-01-15T09:44:26;17.52;;;12.27;;
78197;SDS011;67472;51.554;7.812;2024-01-15T09:47:13;23.20;;;12.02;;
78197;SDS011;67472;51.554;7.812;2024-01-15T09:50:01;17.88;;;12.25;;
78197;SDS011;67472;51.554;7.812;2024-01-15T09:52:48;18.77;;;12.88;;
78197;SDS011;67472;51.554;7.812;2024-01-15T09:55:37;18.95;;;12.68;;
78197;SDS011;67472;51.554;7.812;2024-01-15T09:58:24;19.48;;;14.32;;
78197;SDS011;67472;51.554;7.812;2024-01-15T10:01:11;17.80;;;11.82;;
78197;SDS011;67472;51.554;7.812;2024-01-15T10:04:00;20.13;;;13.32;;
78197;SDS011;67472;51.554;7.812;2024-01-15T10:06:47;18.25;;;12.70;;
78197;SDS011;67472;51.554;7.812;2024-01-15T10:09:38;20.25;;;13.65;;
78197;SDS011;67472;51.554;7.812;2024-01-15T10:12:27;18.85;;;12.98;;
78197;SDS011;67472;51.554;7.812;2024-01-15T10:15:14;18.48;;;13.25;;
78197;SDS011;67472;51.554;7.812;2024-01-15T10:18:02;20.23;;;13.68;;
78197;SDS011;67472;51.554;7.812;2024-01-15T10:20:49;18.45;;;13.13;;
78197;SDS011;67472;51.554;7.812;2024-01-15T10:23:36;16.58;;;10.98;;
78197;SDS011;67472;51.554;7.812;2024-01-15T10:26:24;15.25;;;11.88;;
78197;SDS011;67472;51.554;7.812;2024-01-15T10:29:14;18.90;;;11.73;;
78197;SDS011;67472;51.554;7.812;2024-01-15T10:32:01;16.80;;;11.20;;
78197;SDS011;67472;51.554;7.812;2024-01-15T10:34:48;16.83;;;11.30;;
78197;SDS011;67472;51.554;7.812;2024-01-15T10:37:38;14.13;;;9.88;;
78197;SDS011;67472;51.554;7.812;2024-01-15T10:40:26;14.48;;;10.00;;
78197;SDS011;67472;51.554;7.812;2024-01-15T10:43:12;14.57;;;9.23;;
78197;SDS011;67472;51.554;7.812;2024-01-15T10:46:00;13.35;;;8.98;;
78197;SDS011;67472;51.554;7.812;2024-01-15T10:48:47;13.65;;;9.18;;
78197;SDS011;67472;51.554;7.812;2024-01-15T10:51:34;14.93;;;8.48;;
78197;SDS011;67472;51.554;7.812;2024-01-15T10:54:20;14.43;;;8.73;;
78197;SDS011;67472;51.554;7.812;2024-01-15T10:57:08;11.43;;;7.38;;
78197;SDS011;67472;51.554;7.812;2024-01-15T10:59:56;11.38;;;7.60;;
78197;SDS011;67472;51.554;7.812;2024-01-15T11:02:44;8.52;;;6.53;;
78197;SDS011;67472;51.554;7.812;2024-01-15T11:05:33;10.85;;;8.00;;
78197;SDS011;67472;51.554;7.812;2024-01-15T11:08:19;11.73;;;8.20;;
78197;SDS011;67472;51.554;7.812;2024-01-15T11:11:06;9.43;;;7.57;;
78197;SDS011;67472;51.554;7.812;2024-01-15T11:13:53;9.35;;;6.72;;
78197;SDS011;67472;51.554;7.812;2024-01-15T11:16:53;11.13;;;8.25;;
78197;SDS011;67472;51.554;7.812;2024-01-15T11:19:46;12.75;;;7.28;;
78197;SDS011;67472;51.554;7.812;2024-01-15T11:25:41;12.45;;;8.07;;
78197;SDS011;67472;51.554;7.812;2024-01-15T11:31:59;14.95;;;9.15;;
78197;SDS011;67472;51.554;7.812;2024-01-15T11:34:57;16.00;;;9.40;;
78197;SDS011;67472;51.554;7.812;2024-01-15T11:37:56;17.17;;;9.82;;
78197;SDS011;67472;51.554;7.812;2024-01-15T11:40:43;14.15;;;10.35;;
78197;SDS011;67472;51.554;7.812;2024-01-15T11:43:33;15.35;;;10.75;;
78197;SDS011;67472;51.554;7.812;2024-01-15T11:46:20;14.65;;;10.50;;
78197;SDS011;67472;51.554;7.812;2024-01-15T11:49:06;20.77;;;10.48;;
78197;SDS011;67472;51.554;7.812;2024-01-15T11:51:59;14.63;;;10.45;;
78197;SDS011;67472;51.554;7.812;2024-01-15T11:54:53;19.65;;;10.85;;
78197;SDS011;67472;51.554;7.812;2024-01-15T11:57:47;11.57;;;8.57;;
78197;SDS011;67472;51.554;7.812;2024-01-15T12:00:39;13.75;;;9.48;;
78197;SDS011;67472;51.554;7.812;2024-01-15T12:03:26;16.27;;;9.88;;
78197;SDS011;67472;51.554;7.812;2024-01-15T12:06:12;13.30;;;10.45;;
78197;SDS011;67472;51.554;7.812;2024-01-15T12:09:09;18.50;;;9.23;;
78197;SDS011;67472;51.554;7.812;2024-01-15T12:11:57;14.00;;;9.93;;
78197;SDS011;67472;51.554;7.812;2024-01-15T12:14:51;14.18;;;8.68;;
78197;SDS011;67472;51.554;7.812;2024-01-15T12:17:38;12.25;;;7.95;;
78197;SDS011;67472;51.554;7.812;2024-01-15T12:20:24;12.63;;;8.00;;
78197;SDS011;67472;51.554;7.812;2024-01-15T12:23:11;13.85;;;8.60;;
78197;SDS011;67472;51.554;7.812;2024-01-15T12:26:00;13.77;;;9.00;;
78197;SDS011;67472;51.554;7.812;2024-01-15T12:28:46;10.70;;;8.70;;
78197;SDS011;67472;51.554;7.812;2024-01-15T12:31:35;9.98;;;7.25;;
78197;SDS011;67472;51.554;7.812;2024-01-15T12:34:22;12.27;;;8.13;;
78197;SDS011;67472;51.554;7.812;2024-01-15T12:37:10;13.70;;;8.77;;
78197;SDS011;67472;51.554;7.812;2024-01-15T12:39:58;13.48;;;7.05;;
78197;SDS011;67472;51.554;7.812;2024-01-15T12:42:46;10.25;;;6.82;;
78197;SDS011;67472;51.554;7.812;2024-01-15T12:45:33;10.13;;;6.82;;
78197;SDS011;67472;51.554;7.812;2024-01-15T12:48:21;9.52;;;6.35;;
78197;SDS011;67472;51.554;7.812;2024-01-15T12:51:09;10.18;;;5.93;;
78197;SDS011;67472;51.554;7.812;2024-01-15T12:53:56;10.90;;;6.40;;
78197;SDS011;67472;51.554;7.812;2024-01-15T12:56:43;10.48;;;7.05;;
78197;SDS011;67472;51.554;7.812;2024-01-15T12:59:31;13.07;;;7.00;;
78197;SDS011;67472;51.554;7.812;2024-01-15T13:02:18;11.82;;;7.13;;
78197;SDS011;67472;51.554;7.812;2024-01-15T13:05:05;14.68;;;7.55;;
78197;SDS011;67472;51.554;7.812;2024-01-15T13:07:53;12.50;;;7.80;;
78197;SDS011;67472;51.554;7.812;2024-01-15T13:10:39;21.25;;;10.82;;
78197;SDS011;67472;51.554;7.812;2024-01-15T13:13:26;12.80;;;7.85;;
78197;SDS011;67472;51.554;7.812;2024-01-15T13:16:14;13.32;;;6.93;;
78197;SDS011;67472;51.554;7.812;2024-01-15T13:19:00;14.55;;;7.50;;
78197;SDS011;67472;51.554;7.812;2024-01-15T13:21:48;9.45;;;7.07;;
78197;SDS011;67472;51.554;7.812;2024-01-15T13:24:35;12.45;;;7.78;;
78197;SDS011;67472;51.554;7.812;2024-01-15T13:27:22;9.68;;;7.90;;
78197;SDS011;67472;51.554;7.812;2024-01-15T13:30:09;12.38;;;7.40;;
78197;SDS011;67472;51.554;7.812;2024-01-15T13:32:59;12.68;;;6.93;;
78197;SDS011;67472;51.554;7.812;2024-01-15T13:35:49;13.27;;;7.10;;
78197;SDS011;67472;51.554;7.812;2024-01-15T13:38:35;10.10;;;6.97;;
78197;SDS011;67472;51.554;7.812;2024-01-15T13:41:22;14.82;;;7.32;;
78197;SDS011;67472;51.554;7.812;2024-01-15T13:44:11;12.50;;;6.60;;
78197;SDS011;67472;51.554;7.812;2024-01-15T13:46:58;8.40;;;6.75;;
78197;SDS011;67472;51.554;7.812;2024-01-15T13:49:46;11.07;;;6.10;;
78197;SDS011;67472;51.554;7.812;2024-01-15T13:52:32;9.13;;;4.68;;
78197;SDS011;67472;51.554;7.812;2024-01-15T13:55:18;10.10;;;5.40;;
78197;SDS011;67472;51.554;7.812;2024-01-15T13:58:05;5.00;;;4.20;;
78197;SDS011;67472;51.554;7.812;2024-01-15T14:00:51;6.60;;;4.18;;
78197;SDS011;67472;51.554;7.812;2024-01-15T14:03:38;6.75;;;5.18;;
78197;SDS011;67472;51.554;7.812;2024-01-15T14:06:27;7.35;;;5.05;;
78197;SDS011;67472;51.554;7.812;2024-01-15T14:09:13;8.07;;;5.47;;
78197;SDS011;67472;51.554;7.812;2024-01-15T14:11:59;5.38;;;4.80;;
78197;SDS011;67472;51.554;7.812;2024-01-15T14:14:47;5.43;;;4.45;;
78197;SDS011;67472;51.554;7.812;2024-01-15T14:17:34;6.18;;;4.50;;
78197;SDS011;67472;51.554;7.812;2024-01-15T14:20:20;7.72;;;4.43;;
78197;SDS011;67472;51.554;7.812;2024-01-15T14:23:08;5.70;;;4.72;;
78197;SDS011;67472;51.554;7.812;2024-01-15T14:25:55;9.18;;;4.60;;
78197;SDS011;67472;51.554;7.812;2024-01-15T14:28:42;5.70;;;3.47;;
78197;SDS011;67472;51.554;7.812;2024-01-15T14:31:28;5.28;;;3.35;;
78197;SDS011;67472;51.554;7.812;2024-01-15T14:34:14;4.60;;;2.90;;
78197;SDS011;67472;51.554;7.812;2024-01-15T14:37:02;7.55;;;3.10;;
78197;SDS011;67472;51.554;7.812;2024-01-15T14:39:50;4.28;;;2.22;;
78197;SDS011;67472;51.554;7.812;2024-01-15T14:42:39;7.40;;;2.50;;
78197;SDS011;67472;51.554;7.812;2024-01-15T14:45:27;5.05;;;2.33;;
78197;SDS011;67472;51.554;7.812;2024-01-15T14:48:14;3.83;;;2.75;;
78197;SDS011;67472;51.554;7.812;2024-01-15T14:51:00;5.78;;;3.17;;
78197;SDS011;67472;51.554;7.812;2024-01-15T14:53:47;4.32;;;2.92;;
78197;SDS011;67472;51.554;7.812;2024-01-15T14:56:35;9.32;;;3.80;;
78197;SDS011;67472;51.554;7.812;2024-01-15T14:59:22;5.10;;;3.75;;
78197;SDS011;67472;51.554;7.812;2024-01-15T15:02:08;4.22;;;3.83;;
78197;SDS011;67472;51.554;7.812;2024-01-15T15:04:55;3.53;;;3.22;;
78197;SDS011;67472;51.554;7.812;2024-01-15T15:07:43;3.90;;;3.53;;
78197;SDS011;67472;51.554;7.812;2024-01-15T15:10:29;7.88;;;3.60;;
78197;SDS011;67472;51.554;7.812;2024-01-15T15:13:17;7.55;;;2.80;;
78197;SDS011;67472;51.554;7.812;2024-01-15T15:16:04;4.82;;;3.25;;
78197;SDS011;67472;51.554;7.812;2024-01-15T15:18:52;6.90;;;2.90;;
78197;SDS011;67472;51.554;7.812;2024-01-15T15:21:39;5.10;;;3.08;;
78197;SDS011;67472;51.554;7.812;2024-01-15T15:24:25;4.82;;;2.95;;
78197;SDS011;67472;51.554;7.812;2024-01-15T15:27:12;4.22;;;2.80;;
78197;SDS011;67472;51.554;7.812;2024-01-15T15:30:00;4.10;;;2.78;;
78197;SDS011;67472;51.554;7.812;2024-01-15T15:32:47;6.38;;;3.28;;
78197;SDS011;67472;51.554;7.812;2024-01-15T15:35:36;3.40;;;2.58;;
78197;SDS011;67472;51.554;7.812;2024-01-15T15:38:24;5.68;;;3.17;;
78197;SDS011;67472;51.554;7.812;2024-01-15T15:41:10;4.82;;;2.67;;
78197;SDS011;67472;51.554;7.812;2024-01-15T15:43:57;8.00;;;3.00;;
78197;SDS011;67472;51.554;7.812;2024-01-15T15:46:45;4.78;;;3.58;;
78197;SDS011;67472;51.554;7.812;2024-01-15T15:49:31;4.43;;;3.40;;
78197;SDS011;67472;51.554;7.812;2024-01-15T15:52:18;8.40;;;4.75;;
78197;SDS011;67472;51.554;7.812;2024-01-15T15:55:05;11.15;;;3.72;;
78197;SDS011;67472;51.554;7.812;2024-01-15T15:57:55;5.88;;;3.45;;
78197;SDS011;67472;51.554;7.812;2024-01-15T16:00:42;6.93;;;3.75;;
78197;SDS011;67472;51.554;7.812;2024-01-15T16:03:30;9.75;;;4.57;;
78197;SDS011;67472;51.554;7.812;2024-01-15T16:06:16;5.85;;;3.53;;
78197;SDS011;67472;51.554;7.812;2024-01-15T16:09:04;7.47;;;4.43;;
78197;SDS011;67472;51.554;7.812;2024-01-15T16:11:50;10.02;;;4.65;;
78197;SDS011;67472;51.554;7.812;2024-01-15T16:14:37;8.88;;;4.22;;
78197;SDS011;67472;51.554;7.812;2024-01-15T16:17:23;10.13;;;4.40;;
78197;SDS011;67472;51.554;7.812;2024-01-15T16:20:11;9.95;;;4.88;;
78197;SDS011;67472;51.554;7.812;2024-01-15T16:22:58;15.55;;;4.75;;
78197;SDS011;67472;51.554;7.812;2024-01-15T16:25:44;4.82;;;3.78;;
78197;SDS011;67472;51.554;7.812;2024-01-15T16:28:31;5.07;;;3.47;;
78197;SDS011;67472;51.554;7.812;2024-01-15T16:31:17;9.05;;;4.00;;
78197;SDS011;67472;51.554;7.812;2024-01-15T16:34:05;5.65;;;3.42;;